WetterOnline ( http://www.wetteronline.ch )

Wetter aktuell Schwerin

Aktuelles Wetter: Schwerin (68m)

6-stündlich | Neueste Meldungen
Ortszeit Temperatur Wetter
Sa, 16.02. 19:00 9.3° C wolkig
Sa, 16.02. 13:00 11.9° C wolkig
Sa, 16.02. 7:00 2.3° C wolkenlos
Sa, 16.02. 1:00 5.7° C wolkenlos
Fr, 15.02. 19:00 10.1° C leicht bewölkt
Fr, 15.02. 13:00 11.1° C wolkig
Fr, 15.02. 7:00 0.5° C wolkenlos
Fr, 15.02. 1:00 2.2° C wolkenlos
Ortszeit Temperatur Wetter
Sa, 16.02. 20:30 8.5° C wolkig
Sa, 16.02. 20:20 8.5° C wolkig
Sa, 16.02. 20:10 8.0° C wolkig
Sa, 16.02. 20:00 8.6° C wolkig
Sa, 16.02. 19:50 8.6° C wolkig
Sa, 16.02. 19:40 8.9° C wolkig
Sa, 16.02. 19:30 9.0° C wolkig
Sa, 16.02. 19:00 9.3° C wolkig
Ortszeit Relative Feuchte Sichtweite
Sa, 16.02. 19:00 58% 20 km
Sa, 16.02. 13:00 50% 16 km
Sa, 16.02. 7:00 79% 25 km
Sa, 16.02. 1:00 69% 29 km
Fr, 15.02. 19:00 43% 30 km
Fr, 15.02. 13:00 46% 17 km
Fr, 15.02. 7:00 85% 9 km
Fr, 15.02. 1:00 80% 13 km
Ortszeit Relative Feuchte Sichtweite
Sa, 16.02. 20:30 62% 16 km
Sa, 16.02. 20:20 62% -
Sa, 16.02. 20:10 64% -
Sa, 16.02. 20:00 61% 16 km
Sa, 16.02. 19:50 61% -
Sa, 16.02. 19:40 60% -
Sa, 16.02. 19:30 59% 13 km
Sa, 16.02. 19:00 58% 20 km
Ortszeit Niederschlagsmenge Niederschlagsart
Sa, 16.02. 19:00 0.0 l/m2 in 12 Std. -
Sa, 16.02. 13:00 0.0 l/m2 in 6 Std. -
Sa, 16.02. 7:00 0.0 l/m2 in 12 Std. -
Sa, 16.02. 1:00 0.0 l/m2 in 6 Std. -
Fr, 15.02. 19:00 0.0 l/m2 in 12 Std. -
Fr, 15.02. 13:00 0.0 l/m2 in 6 Std. -
Fr, 15.02. 7:00 0.0 l/m2 in 12 Std. -
Fr, 15.02. 1:00 0.0 l/m2 in 6 Std. -
Ortszeit Niederschlagsmenge Niederschlagsart
Sa, 16.02. 20:30 0.0 l/m2 in 1 Std. -
Sa, 16.02. 20:20 keine Meldung -
Sa, 16.02. 20:10 keine Meldung -
Sa, 16.02. 20:00 0.0 l/m2 in 1 Std. -
Sa, 16.02. 19:50 keine Meldung -
Sa, 16.02. 19:40 keine Meldung -
Sa, 16.02. 19:30 0.0 l/m2 in 1 Std. -
Sa, 16.02. 19:00 0.0 l/m2 in 1 Std. -
Ortszeit Stärke Spitze Richtung
km/h Bft. km/h Grad Sektor
Sa, 16.02. 19:00 15 3 35 230° SW
Sa, 16.02. 13:00 20 4 33 230° SW
Sa, 16.02. 7:00 9 2 24 210° SW
Sa, 16.02. 1:00 13 3 22 200° S
Fr, 15.02. 19:00 9 2 17 170° S
Fr, 15.02. 13:00 11 2 18 230° SW
Fr, 15.02. 7:00 11 2 18 220° SW
Fr, 15.02. 1:00 13 3 17 240° SW
Ortszeit Stärke Spitze Richtung
km/h Bft. km/h Grad Sektor
Sa, 16.02. 20:30 7 2 14 240° SW
Sa, 16.02. 20:20 7 2 - 240° SW
Sa, 16.02. 20:10 7 2 - 240° SW
Sa, 16.02. 20:00 13 3 24 230° SW
Sa, 16.02. 19:50 13 3 - 230° SW
Sa, 16.02. 19:40 15 3 - 230° SW
Sa, 16.02. 19:30 17 3 24 230° SW
Sa, 16.02. 19:00 15 3 22 230° SW
Ortszeit Untergrenze Bedeckung Gattung
total tief tief mittel hoch
Sa, 16.02. 19:00 8400 m 8/8 0/8 - - -
Sa, 16.02. 13:00 10500 m 8/8 0/8 - - -
Sa, 16.02. 7:00 - 0/8 0/8 - - -
Sa, 16.02. 1:00 - 0/8 0/8 - - -
Fr, 15.02. 19:00 10500 m 3/8 0/8 - - -
Fr, 15.02. 13:00 10500 m 8/8 0/8 - - -
Fr, 15.02. 7:00 - 0/8 0/8 - - -
Fr, 15.02. 1:00 - 0/8 0/8 - - -
Ortszeit Bedeckungsgrad in Achtel und Wolkenuntergrenze
Sa, 16.02. 20:30 6(8100m) 8(10500m)
Sa, 16.02. 20:20 6(8100m) 8(10500m)
Sa, 16.02. 20:10 4(8100m) 8(10500m)
Sa, 16.02. 20:00 8(10500m) 8(12000m) 8(12000m)
Sa, 16.02. 19:50 8(10500m) 8(12000m)
Sa, 16.02. 19:40 8(10500m) 8(12000m)
Sa, 16.02. 19:30 2(8100m) 8(10500m) 8(12000m)
Sa, 16.02. 19:00 3(8400m) 4(9000m) 8(10500m)
Ortszeit Luftdruck NN (hPa) Tendenz (hPa in 3 Std.)
Sa, 16.02. 19:00 1024 + 0,6
Sa, 16.02. 13:00 1024 - 0,5
Sa, 16.02. 7:00 1025 - 1,2
Sa, 16.02. 1:00 1028 - 1,5
Fr, 15.02. 19:00 1030 - 1,2
Fr, 15.02. 13:00 1033 - 0,6
Fr, 15.02. 7:00 1034 - 0,3
Fr, 15.02. 1:00 1034 0,0
Ortszeit Luftdruck NN (hPa) Tendenz (hPa in 3 Std.)
Sa, 16.02. 20:30 1024 + 0,9
Sa, 16.02. 20:20 1024 keine Meldung
Sa, 16.02. 20:10 1024 keine Meldung
Sa, 16.02. 20:00 1024 + 0,7
Sa, 16.02. 19:50 1024 keine Meldung
Sa, 16.02. 19:40 1024 keine Meldung
Sa, 16.02. 19:30 1024 + 0,7
Sa, 16.02. 19:00 1024 + 0,6
Ortszeit Schneehöhe (cm)
Sa, 16.02. 19:00 0
Sa, 16.02. 13:00 0
Sa, 16.02. 7:00 0
Sa, 16.02. 1:00 0
Fr, 15.02. 19:00 0
Fr, 15.02. 13:00 0
Fr, 15.02. 7:00 0
Fr, 15.02. 1:00 0
Ortszeit Schneehöhe (cm)
Sa, 16.02. 20:30 0
Sa, 16.02. 20:20 0
Sa, 16.02. 20:10 0
Sa, 16.02. 20:00 0
Sa, 16.02. 19:50 0
Sa, 16.02. 19:40 0
Sa, 16.02. 19:30 0
Sa, 16.02. 19:00 0
Link zu dieser Seite / Seite empfehlen

Das Wetter in ...